createdAt,value
2019-02-08T00:01:20.336Z,100307.00
2019-02-08T00:03:44.840Z,100297.37
2019-02-08T00:06:09.391Z,100306.66
2019-02-08T00:08:34.357Z,100310.33
2019-02-08T00:10:58.744Z,100297.56
2019-02-08T00:13:23.245Z,100292.07
2019-02-08T00:15:47.853Z,100283.91
2019-02-08T00:18:13.018Z,100276.77
2019-02-08T00:20:37.490Z,100274.27
2019-02-08T00:23:02.054Z,100279.83
2019-02-08T00:25:26.621Z,100274.59
2019-02-08T00:27:51.759Z,100269.19
2019-02-08T00:30:24.709Z,100278.43
2019-02-08T00:32:49.340Z,100273.75
2019-02-08T00:35:14.484Z,100281.73
2019-02-08T00:37:39.045Z,100288.01
2019-02-08T00:40:05.187Z,100283.79
2019-02-08T00:42:29.582Z,100282.05
2019-02-08T00:44:54.011Z,100289.11
2019-02-08T00:47:18.428Z,100286.81
2019-02-08T00:49:42.918Z,100293.93
2019-02-08T00:52:07.739Z,100295.71
2019-02-08T00:54:32.182Z,100295.65
2019-02-08T00:56:56.601Z,100300.93
2019-02-08T00:59:21.027Z,100301.59
2019-02-08T01:01:45.606Z,100300.49
2019-02-08T01:04:10.187Z,100300.83
2019-02-08T01:06:34.670Z,100302.68
2019-02-08T01:08:59.108Z,100297.61
2019-02-08T01:11:23.516Z,100312.59
2019-02-08T01:13:47.964Z,100302.73
2019-02-08T01:16:12.438Z,100317.09
2019-02-08T01:18:36.912Z,100311.20
2019-02-08T01:21:01.611Z,100316.99
2019-02-08T01:23:26.151Z,100316.40
2019-02-08T01:25:50.573Z,100309.89
2019-02-08T01:28:14.968Z,100312.30
2019-02-08T01:30:39.459Z,100314.33
2019-02-08T01:33:04.213Z,100313.65
2019-02-08T01:35:29.477Z,100311.86
2019-02-08T01:37:54.412Z,100305.42
2019-02-08T01:40:29.957Z,100304.61
2019-02-08T01:42:54.499Z,100309.09
2019-02-08T01:45:23.954Z,100302.01
2019-02-08T01:47:48.620Z,100307.14
2019-02-08T01:50:15.861Z,100302.13
2019-02-08T01:52:40.259Z,100311.78
2019-02-08T01:55:06.837Z,100316.66
2019-02-08T01:57:31.315Z,100310.86
2019-02-08T01:59:55.725Z,100313.30
2019-02-08T02:02:20.228Z,100318.53
2019-02-08T02:04:44.713Z,100320.32
2019-02-08T02:07:09.144Z,100320.36
2019-02-08T02:09:33.541Z,100314.56
2019-02-08T02:11:57.959Z,100320.92
2019-02-08T02:14:22.438Z,100316.52
2019-02-08T02:16:46.930Z,100324.36
2019-02-08T02:19:11.401Z,100330.59
2019-02-08T02:21:35.823Z,100341.39
2019-02-08T02:24:00.218Z,100330.86
2019-02-08T02:26:24.644Z,100335.67
2019-02-08T02:28:49.054Z,100328.58
2019-02-08T02:31:13.459Z,100334.81
2019-02-08T02:33:37.894Z,100331.47
2019-02-08T02:36:02.354Z,100336.62
2019-02-08T02:38:26.772Z,100335.78
2019-02-08T02:40:51.181Z,100345.77
2019-02-08T02:43:15.634Z,100343.03
2019-02-08T02:45:40.955Z,100348.25
2019-02-08T02:48:07.133Z,100352.37
2019-02-08T02:50:31.668Z,100357.56
2019-02-08T02:52:56.137Z,100352.81
2019-02-08T02:55:28.033Z,100361.72
2019-02-08T02:57:53.112Z,100352.31
2019-02-08T03:00:23.808Z,100347.94
2019-02-08T03:02:48.370Z,100358.50
2019-02-08T03:05:13.405Z,100351.70
2019-02-08T03:07:37.993Z,100351.48
2019-02-08T03:10:02.533Z,100360.31
2019-02-08T03:12:26.976Z,100359.40
2019-02-08T03:14:51.438Z,100360.83
2019-02-08T03:17:15.846Z,100354.27
2019-02-08T03:19:40.262Z,100354.88
2019-02-08T03:22:04.721Z,100354.31
2019-02-08T03:24:29.281Z,100353.59
2019-02-08T03:26:54.054Z,100356.41
2019-02-08T03:29:18.478Z,100359.32
2019-02-08T03:31:42.949Z,100365.78
2019-02-08T03:34:07.453Z,100366.84
2019-02-08T03:36:31.856Z,100374.39
2019-02-08T03:38:56.278Z,100372.80
2019-02-08T03:41:20.677Z,100368.95
2019-02-08T03:43:45.157Z,100361.44
2019-02-08T03:46:09.647Z,100365.66
2019-02-08T03:48:34.117Z,100374.35
2019-02-08T03:50:58.703Z,100372.47
2019-02-08T03:53:23.240Z,100370.41
2019-02-08T03:55:47.734Z,100372.54
2019-02-08T03:58:12.273Z,100369.06
2019-02-08T04:00:47.646Z,100369.34
2019-02-08T04:03:12.190Z,100379.25
2019-02-08T04:05:36.760Z,100377.37
2019-02-08T04:08:01.216Z,100378.40
2019-02-08T04:10:25.796Z,100373.59
2019-02-08T04:12:50.242Z,100378.30
2019-02-08T04:15:17.496Z,100370.70
2019-02-08T04:17:42.129Z,100372.86
2019-02-08T04:20:09.178Z,100380.30
2019-02-08T04:22:33.596Z,100377.61
2019-02-08T04:24:58.069Z,100386.07
2019-02-08T04:27:22.482Z,100376.73
2019-02-08T04:29:46.886Z,100390.80
2019-02-08T04:32:11.323Z,100384.00
2019-02-08T04:34:35.775Z,100376.02
2019-02-08T04:37:00.194Z,100393.64
2019-02-08T04:39:24.605Z,100385.06
2019-02-08T04:41:49.111Z,100389.05
2019-02-08T04:44:13.510Z,100382.67
2019-02-08T04:46:37.923Z,100383.19
2019-02-08T04:49:02.332Z,100387.89
2019-02-08T04:51:26.737Z,100386.88
2019-02-08T04:53:51.152Z,100382.95
2019-02-08T04:56:15.555Z,100389.41
2019-02-08T04:58:40.000Z,100394.17
2019-02-08T05:01:04.790Z,100388.24
2019-02-08T05:03:29.222Z,100386.00
2019-02-08T05:05:53.616Z,100390.50
2019-02-08T05:08:18.035Z,100396.86
2019-02-08T05:10:42.490Z,100393.81
2019-02-08T05:13:07.151Z,100389.50
2019-02-08T05:15:31.703Z,100395.45
2019-02-08T05:17:56.118Z,100395.55
2019-02-08T05:20:23.132Z,100393.09
2019-02-08T05:22:47.684Z,100390.55
2019-02-08T05:25:12.814Z,100377.57
2019-02-08T05:27:37.288Z,100370.48
2019-02-08T05:30:01.705Z,100374.33
2019-02-08T05:32:26.104Z,100372.31
2019-02-08T05:34:50.527Z,100375.46
2019-02-08T05:37:14.988Z,100375.44
2019-02-08T05:39:39.465Z,100383.39
2019-02-08T05:42:03.936Z,100383.39
2019-02-08T05:44:28.358Z,100385.08
2019-02-08T05:46:52.758Z,100385.53
2019-02-08T05:49:17.317Z,100385.31
2019-02-08T05:51:41.719Z,100386.06
2019-02-08T05:54:06.222Z,100384.20
2019-02-08T05:56:30.604Z,100383.98
2019-02-08T05:58:55.087Z,100385.24
2019-02-08T06:01:19.620Z,100389.74
2019-02-08T06:03:44.165Z,100385.56
2019-02-08T06:06:08.660Z,100388.75
2019-02-08T06:08:33.071Z,100394.78
2019-02-08T06:10:57.486Z,100389.94
2019-02-08T06:13:21.950Z,100389.79
2019-02-08T06:15:46.456Z,100389.55
2019-02-08T06:18:11.385Z,100387.66
2019-02-08T06:20:36.045Z,100379.99
2019-02-08T06:23:00.441Z,100388.38
2019-02-08T06:25:25.180Z,100381.58
2019-02-08T06:27:49.869Z,100387.30
2019-02-08T06:30:17.329Z,100383.89
2019-02-08T06:32:41.807Z,100385.64
2019-02-08T06:35:06.971Z,100387.58
2019-02-08T06:37:31.436Z,100396.07
2019-02-08T06:39:55.854Z,100401.86
2019-02-08T06:42:20.283Z,100404.41
2019-02-08T06:44:44.753Z,100406.19
2019-02-08T06:47:09.248Z,100396.30
2019-02-08T06:49:33.657Z,100409.31
2019-02-08T06:51:58.086Z,100404.61
2019-02-08T06:54:22.473Z,100409.05
2019-02-08T06:56:51.277Z,100409.19
2019-02-08T06:59:17.310Z,100405.76
2019-02-08T07:01:43.374Z,100421.63
2019-02-08T07:04:12.520Z,100416.52
2019-02-08T07:06:47.328Z,100411.88
2019-02-08T07:09:13.500Z,100417.75
2019-02-08T07:11:39.626Z,100423.47
2019-02-08T07:14:09.116Z,100426.87
2019-02-08T07:16:41.095Z,100426.52
2019-02-08T07:19:13.709Z,100408.03
2019-02-08T07:21:42.872Z,100434.24
2019-02-08T07:24:15.312Z,100428.48
2019-02-08T07:26:53.133Z,100426.87
2019-02-08T07:29:25.217Z,100425.27
2019-02-08T07:31:51.257Z,100426.76
2019-02-08T07:34:23.489Z,100424.30
2019-02-08T07:36:55.666Z,100417.72
2019-02-08T07:39:31.115Z,100429.53
2019-02-08T07:41:57.798Z,100422.97
2019-02-08T07:44:28.703Z,100412.98
2019-02-08T07:47:01.971Z,100414.27
2019-02-08T07:49:30.168Z,100409.56
2019-02-08T07:51:59.036Z,100413.83
2019-02-08T07:54:31.357Z,100416.30
2019-02-08T07:56:58.041Z,100420.75
2019-02-08T07:59:25.145Z,100413.42
2019-02-08T08:02:03.507Z,100421.66
2019-02-08T08:04:46.613Z,100413.34
2019-02-08T08:07:18.919Z,100415.61
2019-02-08T08:09:48.467Z,100419.11
2019-02-08T08:12:14.857Z,100415.63
2019-02-08T08:14:47.154Z,100429.77
2019-02-08T08:17:22.266Z,100423.84
2019-02-08T08:20:07.242Z,100424.98
2019-02-08T08:22:36.116Z,100424.31
2019-02-08T08:25:07.563Z,100437.59
2019-02-08T08:27:36.803Z,100433.03
2019-02-08T08:30:05.916Z,100419.56
2019-02-08T08:32:35.428Z,100426.08
2019-02-08T08:35:14.902Z,100426.56
2019-02-08T08:38:09.310Z,100418.32
2019-02-08T08:40:57.801Z,100414.23
2019-02-08T08:43:27.808Z,100412.49
2019-02-08T08:46:11.579Z,100413.37
2019-02-08T08:48:39.043Z,100405.93
2019-02-08T08:51:27.512Z,100396.82
2019-02-08T08:54:14.348Z,100395.36
2019-02-08T08:56:53.395Z,100404.64
2019-02-08T08:59:35.721Z,100392.59
2019-02-08T09:02:18.093Z,100395.72
2019-02-08T09:04:54.494Z,100405.38
2019-02-08T09:07:33.737Z,100405.17
2019-02-08T09:10:17.739Z,100398.70
2019-02-08T09:13:01.766Z,100404.81
2019-02-08T09:15:47.209Z,100407.09
2019-02-08T09:18:29.396Z,100391.83
2019-02-08T09:21:17.606Z,100408.02
2019-02-08T09:23:56.676Z,100384.09
2019-02-08T09:26:32.820Z,100384.03
2019-02-08T09:29:08.694Z,100383.77
2019-02-08T09:31:41.496Z,100382.55
2019-02-08T09:34:29.631Z,100382.42
2019-02-08T09:37:12.686Z,100384.59
2019-02-08T09:39:52.273Z,100392.23
2019-02-08T09:42:25.782Z,100391.36
2019-02-08T09:45:15.716Z,100394.16
2019-02-08T09:47:49.060Z,100383.83
2019-02-08T09:50:28.010Z,100385.14
2019-02-08T09:53:11.719Z,100395.52
2019-02-08T09:56:04.628Z,100401.39
2019-02-08T09:58:43.723Z,100385.91
2019-02-08T10:04:05.353Z,100396.42
2019-02-08T10:06:35.419Z,100391.69
2019-02-08T10:09:08.534Z,100394.80
2019-02-08T10:11:50.455Z,100391.39
2019-02-08T10:14:37.203Z,100391.92
2019-02-08T10:17:28.426Z,100389.99
2019-02-08T10:20:16.539Z,100394.15
2019-02-08T10:23:04.687Z,100401.14
2019-02-08T10:25:51.302Z,100392.50
2019-02-08T10:28:21.718Z,100392.37
2019-02-08T10:30:49.167Z,100388.15
2019-02-08T10:33:16.644Z,100380.93
2019-02-08T10:35:58.770Z,100384.31
2019-02-08T10:38:34.823Z,100382.14
2019-02-08T10:41:16.929Z,100379.50
2019-02-08T10:44:06.530Z,100385.39
2019-02-08T10:46:59.304Z,100378.42
2019-02-08T10:49:41.674Z,100378.11
2019-02-08T10:52:24.718Z,100367.33
2019-02-08T10:55:04.088Z,100369.89
2019-02-08T10:57:56.890Z,100364.06
2019-02-08T11:00:27.486Z,100360.42
2019-02-08T11:03:15.836Z,100362.52
2019-02-08T11:05:55.056Z,100360.47
2019-02-08T11:08:31.070Z,100361.47
2019-02-08T11:11:19.200Z,100352.63
2019-02-08T11:13:55.395Z,100351.18
2019-02-08T11:16:55.475Z,100343.88
2019-02-08T11:19:19.785Z,100353.05
2019-02-08T11:21:44.570Z,100349.19
2019-02-08T11:24:08.983Z,100335.03
2019-02-08T11:26:33.529Z,100342.33
2019-02-08T11:28:57.925Z,100344.77
2019-02-08T11:31:22.449Z,100326.96
2019-02-08T11:33:46.945Z,100326.51
2019-02-08T11:36:11.586Z,100318.93
2019-02-08T11:38:36.061Z,100320.46
2019-02-08T11:41:00.561Z,100317.04
2019-02-08T11:43:25.133Z,100310.73
2019-02-08T11:45:49.593Z,100306.30
2019-02-08T11:48:14.100Z,100310.77
2019-02-08T11:50:38.578Z,100306.94
2019-02-08T11:53:03.078Z,100302.33
2019-02-08T11:55:27.469Z,100310.77
2019-02-08T11:57:51.963Z,100306.94
2019-02-08T12:00:26.871Z,100310.45
2019-02-08T12:02:51.371Z,100301.66
2019-02-08T12:05:16.208Z,100309.04
2019-02-08T12:07:40.767Z,100297.97
2019-02-08T12:10:08.368Z,100297.28
2019-02-08T12:12:32.779Z,100293.91
2019-02-08T12:14:57.285Z,100282.46
2019-02-08T12:17:21.760Z,100271.92
2019-02-08T12:19:46.257Z,100262.41
2019-02-08T12:22:10.680Z,100269.89
2019-02-08T12:24:35.107Z,100272.09
2019-02-08T12:26:59.530Z,100268.09
2019-02-08T12:29:24.034Z,100262.40
2019-02-08T12:31:48.507Z,100253.09
2019-02-08T12:34:13.026Z,100240.80
2019-02-08T12:36:37.416Z,100242.75
2019-02-08T12:39:01.901Z,100245.14
2019-02-08T12:41:26.418Z,100246.76
2019-02-08T12:43:50.822Z,100248.48
2019-02-08T12:46:15.336Z,100251.77
2019-02-08T12:48:39.750Z,100245.22
2019-02-08T12:51:04.323Z,100237.44
2019-02-08T12:53:28.804Z,100249.45
2019-02-08T12:55:53.248Z,100248.20
2019-02-08T12:58:17.797Z,100246.61
2019-02-08T13:00:42.293Z,100241.23
2019-02-08T13:03:06.777Z,100259.41
2019-02-08T13:05:31.347Z,100246.73
2019-02-08T13:07:55.760Z,100250.05
2019-02-08T13:10:28.552Z,100247.09
2019-02-08T13:12:53.215Z,100240.01
2019-02-08T13:15:18.058Z,100250.75
2019-02-08T13:17:42.637Z,100241.96
2019-02-08T13:20:10.255Z,100247.20
2019-02-08T13:22:34.759Z,100227.37
2019-02-08T13:24:59.149Z,100236.87
2019-02-08T13:27:23.672Z,100227.19
2019-02-08T13:29:48.063Z,100226.95
2019-02-08T13:32:12.508Z,100235.20
2019-02-08T13:34:36.908Z,100225.45
2019-02-08T13:37:01.415Z,100211.41
2019-02-08T13:39:25.841Z,100216.65
2019-02-08T13:41:50.308Z,100200.19
2019-02-08T13:44:14.812Z,100207.27
2019-02-08T13:46:39.202Z,100211.80
2019-02-08T13:49:05.400Z,100191.92
2019-02-08T13:51:29.867Z,100189.67
2019-02-08T13:53:54.362Z,100193.99
2019-02-08T13:56:18.769Z,100176.34
2019-02-08T13:58:43.201Z,100174.95
2019-02-08T14:01:07.679Z,100168.13
2019-02-08T14:03:32.272Z,100164.66
2019-02-08T14:05:56.745Z,100171.55
2019-02-08T14:08:22.162Z,100165.34
2019-02-08T14:10:46.552Z,100167.52
2019-02-08T14:13:11.023Z,100167.53
2019-02-08T14:15:36.192Z,100165.52
2019-02-08T14:18:00.602Z,100161.78
2019-02-08T14:20:26.648Z,100167.33
2019-02-08T14:22:51.231Z,100159.37
2019-02-08T14:25:17.229Z,100151.78
2019-02-08T14:27:41.781Z,100169.52
2019-02-08T14:30:20.926Z,100162.50
2019-02-08T14:32:46.207Z,100169.94
2019-02-08T14:35:12.817Z,100174.06
2019-02-08T14:37:37.242Z,100166.46
2019-02-08T14:40:01.657Z,100169.05
2019-02-08T14:42:26.056Z,100177.03
2019-02-08T14:44:50.554Z,100172.00
2019-02-08T14:47:15.092Z,100170.05
2019-02-08T14:49:39.512Z,100164.89
2019-02-08T14:52:04.149Z,100162.05
2019-02-08T14:54:28.646Z,100149.27
2019-02-08T14:56:53.109Z,100150.38
2019-02-08T14:59:17.535Z,100140.08
2019-02-08T15:01:42.066Z,100137.27
2019-02-08T15:04:07.748Z,100136.92
2019-02-08T15:06:32.452Z,100136.34
2019-02-08T15:08:56.851Z,100127.16
2019-02-08T15:11:21.287Z,100125.41
2019-02-08T15:13:45.748Z,100128.41
2019-02-08T15:16:10.242Z,100121.41
2019-02-08T15:18:34.746Z,100115.05
2019-02-08T15:20:59.185Z,100112.56
2019-02-08T15:23:23.591Z,100118.19
2019-02-08T15:25:48.047Z,100111.40
2019-02-08T15:28:12.442Z,100113.51
2019-02-08T15:30:37.601Z,100119.33
2019-02-08T15:33:02.069Z,100106.92
2019-02-08T15:35:29.195Z,100101.84
2019-02-08T15:37:53.701Z,100108.88
2019-02-08T15:40:32.905Z,100113.02
2019-02-08T15:42:57.353Z,100114.75
2019-02-08T15:45:22.496Z,100109.89
2019-02-08T15:47:47.006Z,100108.16
2019-02-08T15:50:11.941Z,100104.53
2019-02-08T15:52:36.368Z,100093.82
2019-02-08T15:55:00.766Z,100094.87
2019-02-08T15:57:31.999Z,100095.30
2019-02-08T15:59:51.380Z,100090.20
2019-02-08T16:02:15.992Z,100085.34
2019-02-08T16:04:40.510Z,100077.06
2019-02-08T16:07:05.286Z,100078.72
2019-02-08T16:09:29.832Z,100080.01
2019-02-08T16:11:54.312Z,100076.46
2019-02-08T16:14:18.819Z,100076.70
2019-02-08T16:16:43.382Z,100072.75
2019-02-08T16:19:07.882Z,100082.08
2019-02-08T16:21:32.294Z,100083.27
2019-02-08T16:23:56.786Z,100089.51
2019-02-08T16:26:21.256Z,100079.73
2019-02-08T16:28:45.743Z,100080.16
2019-02-08T16:31:10.387Z,100073.96
2019-02-08T16:33:34.809Z,100074.71
2019-02-08T16:35:59.353Z,100078.27
2019-02-08T16:38:23.863Z,100079.66
2019-02-08T16:40:48.417Z,100073.73
2019-02-08T16:43:13.320Z,100068.94
2019-02-08T16:45:40.987Z,100061.50
2019-02-08T16:48:13.396Z,100070.06
2019-02-08T16:50:37.963Z,100061.93
2019-02-08T16:53:02.721Z,100063.16
2019-02-08T16:55:27.601Z,100066.14
2019-02-08T16:57:52.542Z,100060.28
2019-02-08T17:00:22.826Z,100047.48
2019-02-08T17:02:47.374Z,100049.48
2019-02-08T17:05:14.651Z,100045.52
2019-02-08T17:07:39.069Z,100052.49
2019-02-08T17:10:05.802Z,100044.03
2019-02-08T17:12:30.290Z,100045.25
2019-02-08T17:14:54.750Z,100038.50
2019-02-08T17:17:26.791Z,100030.44
2019-02-08T17:19:51.289Z,100032.08
2019-02-08T17:22:15.836Z,100020.52
2019-02-08T17:24:40.293Z,100018.95
2019-02-08T17:27:04.937Z,100020.34
2019-02-08T17:29:29.418Z,100012.50
2019-02-08T17:31:53.943Z,100019.56
2019-02-08T17:34:18.434Z,100016.03
2019-02-08T17:36:42.894Z,100003.05
2019-02-08T17:39:07.642Z,99999.17
2019-02-08T17:41:32.148Z,99996.59
2019-02-08T17:43:56.553Z,99996.48
2019-02-08T17:46:21.116Z,99989.95
2019-02-08T17:48:45.528Z,99991.81
2019-02-08T17:51:10.096Z,99984.77
2019-02-08T17:53:34.499Z,99976.27
2019-02-08T17:55:58.939Z,99966.45
2019-02-08T17:58:23.392Z,99956.08
2019-02-08T18:00:52.375Z,99950.91
2019-02-08T18:03:17.115Z,99935.09
2019-02-08T18:05:41.612Z,99928.25
2019-02-08T18:08:06.781Z,99925.63
2019-02-08T18:10:31.252Z,99935.77
2019-02-08T18:12:55.725Z,99913.11
2019-02-08T18:15:24.038Z,99908.26
2019-02-08T18:17:48.601Z,99906.88
2019-02-08T18:20:27.707Z,99901.09
2019-02-08T18:22:52.288Z,99898.05
2019-02-08T18:25:16.927Z,99902.64
2019-02-08T18:27:41.372Z,99904.90
2019-02-08T18:30:11.454Z,99904.88
2019-02-08T18:32:35.908Z,99901.75
2019-02-08T18:35:00.386Z,99901.53
2019-02-08T18:37:24.880Z,99895.07
2019-02-08T18:39:49.296Z,99895.31
2019-02-08T18:42:13.860Z,99899.30
2019-02-08T18:44:38.302Z,99896.66
2019-02-08T18:47:02.708Z,99886.10
2019-02-08T18:49:27.203Z,99884.06
2019-02-08T18:51:51.612Z,99872.74
2019-02-08T18:54:16.026Z,99878.48
2019-02-08T18:56:40.448Z,99879.27
2019-02-08T18:59:05.219Z,99883.92
2019-02-08T19:01:29.766Z,99872.27
2019-02-08T19:03:54.284Z,99868.52
2019-02-08T19:06:18.774Z,99854.56
2019-02-08T19:08:43.265Z,99855.08
2019-02-08T19:11:07.738Z,99843.08
2019-02-08T19:13:32.136Z,99856.58
2019-02-08T19:15:56.659Z,99836.50
2019-02-08T19:18:21.050Z,99823.16
2019-02-08T19:20:45.566Z,99830.06
2019-02-08T19:23:10.036Z,99824.25
2019-02-08T19:25:39.676Z,99822.00
2019-02-08T19:28:04.514Z,99815.89
2019-02-08T19:30:40.069Z,99813.00
2019-02-08T19:33:05.710Z,99810.25
2019-02-08T19:35:30.264Z,99807.22
2019-02-08T19:37:54.813Z,99798.52
2019-02-08T19:40:22.119Z,99786.33
2019-02-08T19:42:46.653Z,99790.70
2019-02-08T19:45:14.229Z,99784.41
2019-02-08T19:47:38.764Z,99785.89
2019-02-08T19:50:04.862Z,99798.59
2019-02-08T19:52:29.286Z,99777.88
2019-02-08T19:54:53.802Z,99774.86
2019-02-08T19:57:18.235Z,99773.80
2019-02-08T19:59:42.777Z,99770.02
2019-02-08T20:02:07.354Z,99771.39
2019-02-08T20:04:31.836Z,99766.23
2019-02-08T20:06:56.329Z,99774.64
2019-02-08T20:09:20.885Z,99764.53
2019-02-08T20:11:45.339Z,99770.11
2019-02-08T20:14:09.795Z,99765.97
2019-02-08T20:16:34.327Z,99751.47
2019-02-08T20:18:58.749Z,99757.37
2019-02-08T20:21:23.243Z,99749.17
2019-02-08T20:23:47.634Z,99746.81
2019-02-08T20:26:12.127Z,99735.69
2019-02-08T20:28:42.139Z,99737.83
2019-02-08T20:31:02.710Z,99742.37
2019-02-08T20:33:27.117Z,99730.20
2019-02-08T20:35:51.633Z,99722.17
2019-02-08T20:38:16.064Z,99713.42
2019-02-08T20:40:43.205Z,99706.95
2019-02-08T20:43:07.693Z,99714.30
2019-02-08T20:45:34.119Z,99720.75
2019-02-08T20:48:00.176Z,99701.97
2019-02-08T20:50:25.223Z,99702.53
2019-02-08T20:52:50.101Z,99697.48
2019-02-08T20:55:16.953Z,99699.70
2019-02-08T20:57:41.372Z,99711.94
2019-02-08T21:00:20.884Z,99691.58
2019-02-08T21:02:45.391Z,99694.55
2019-02-08T21:05:10.239Z,99702.30
2019-02-08T21:07:34.700Z,99686.70
2019-02-08T21:09:59.270Z,99691.22
2019-02-08T21:12:23.674Z,99687.14
2019-02-08T21:14:48.170Z,99684.98
2019-02-08T21:17:12.658Z,99683.02
2019-02-08T21:19:37.081Z,99679.38
2019-02-08T21:22:01.628Z,99677.06
2019-02-08T21:24:26.051Z,99670.78
2019-02-08T21:26:50.523Z,99657.69
2019-02-08T21:29:14.945Z,99658.39
2019-02-08T21:31:39.497Z,99654.20
2019-02-08T21:34:03.994Z,99652.43
2019-02-08T21:36:28.409Z,99641.24
2019-02-08T21:38:52.849Z,99644.30
2019-02-08T21:41:17.390Z,99643.83
2019-02-08T21:43:41.792Z,99636.27
2019-02-08T21:46:06.276Z,99634.80
2019-02-08T21:48:30.677Z,99628.95
2019-02-08T21:50:55.186Z,99622.68
2019-02-08T21:53:19.711Z,99615.36
2019-02-08T21:55:44.301Z,99621.00
2019-02-08T21:58:08.837Z,99619.52
2019-02-08T22:00:38.827Z,99614.05
2019-02-08T22:03:03.465Z,99617.88
2019-02-08T22:05:36.120Z,99603.30
2019-02-08T22:08:00.674Z,99600.20
2019-02-08T22:10:25.545Z,99593.35
2019-02-08T22:12:50.158Z,99589.31
2019-02-08T22:15:28.720Z,99585.72
2019-02-08T22:17:53.278Z,99584.27
2019-02-08T22:20:18.326Z,99584.09
2019-02-08T22:22:42.829Z,99585.05
2019-02-08T22:25:10.782Z,99581.89
2019-02-08T22:27:35.200Z,99574.32
2019-02-08T22:29:59.740Z,99563.33
2019-02-08T22:32:27.248Z,99561.20
2019-02-08T22:34:51.670Z,99569.19
2019-02-08T22:37:16.244Z,99555.27
2019-02-08T22:39:40.718Z,99552.89
2019-02-08T22:42:05.393Z,99559.67
2019-02-08T22:44:29.862Z,99551.77
2019-02-08T22:46:54.421Z,99557.30
2019-02-08T22:49:18.825Z,99547.47
2019-02-08T22:51:43.329Z,99539.04
2019-02-08T22:54:07.735Z,99541.00
2019-02-08T22:56:32.146Z,99539.94
2019-02-08T22:58:56.638Z,99544.63
2019-02-08T23:01:26.445Z,99541.02
2019-02-08T23:03:50.888Z,99541.69
2019-02-08T23:06:15.336Z,99536.84
2019-02-08T23:08:39.818Z,99535.64
2019-02-08T23:11:05.273Z,99533.53
2019-02-08T23:13:29.841Z,99514.00
2019-02-08T23:15:54.390Z,99513.83
2019-02-08T23:18:18.967Z,99509.59
2019-02-08T23:20:43.365Z,99509.73
2019-02-08T23:23:08.526Z,99503.82
2019-02-08T23:25:33.089Z,99501.42
2019-02-08T23:27:57.512Z,99486.46
2019-02-08T23:30:23.142Z,99491.36
2019-02-08T23:32:47.671Z,99497.59
2019-02-08T23:35:13.533Z,99493.83
2019-02-08T23:37:37.945Z,99501.56
2019-02-08T23:40:02.434Z,99491.98
2019-02-08T23:42:26.897Z,99474.03
2019-02-08T23:44:51.318Z,99479.42
2019-02-08T23:47:26.461Z,99474.23
2019-02-08T23:49:50.891Z,99472.50
2019-02-08T23:52:15.349Z,99470.05
2019-02-08T23:54:39.781Z,99466.38
2019-02-08T23:57:04.247Z,99465.98
2019-02-08T23:59:28.748Z,99456.70
